Troy, Vermont
Current Conditions -  °F | °C
As of 8:15 AM on Saturday 25 Oct 2014 (Local Time) from KEFK Reporting Station
Clear Clear  
Wind Chill: 25°   Ceiling: Unl
Heat Index: 32°   Visibility: 10mi
Dew Point: 31°   Wind: 7mph
Humidity: 99%   Direction: 220°SW
Pressure: 29.74"   Gusts: NA
Location:  44.9°N, 72.4°W
Report Text: KEFK 251215Z AUTO 22006KT 10SM CLR 00/00 A2974 RMK AO2 T10011003
Loading
Personal Weather Stations






























Interactive Weather Map
Tropical Storm Tracking
New forecast layout! Learn more

10-Day Weather Forecast

Advertisements
Track Severe Weather on mobile